Time;durP1;ratioP1;P1;durP2;ratioP2;P2;SDS_P1;SDS_P2;PMS_P1;PMS_P2;Temp;Humidity;BMP_temperature;BMP_pressure;BME280_temperature;BME280_humidity;BME280_pressure;Samples;Min_cycle;Max_cycle;Signal;HPM_P1;HPM_P2
2021/11/25 00:10:06;;;;;;;15.98;8.05;;;;;;;3.62;93.02;92497.97;4859707;29;20053;-95
2021/11/25 00:13:26;;;;;;;16.50;8.35;;;;;;;3.60;92.98;92496.66;4861316;29;20263;-94
2021/11/25 00:16:16;;;;;;;15.80;8.23;;;;;;;3.62;92.52;92492.03;4861045;29;20586;-93
2021/11/25 00:18:57;;;;;;;17.48;8.35;;;;;;;3.50;92.30;92480.00;4835333;29;20029;-93
2021/11/25 00:22:15;;;;;;;28.15;8.45;;;;;;;3.50;91.73;92480.00;4880120;29;20040;-94
2021/11/25 00:25:21;;;;;;;;;;;;;;;;;;;;;
2021/11/25 00:28:42;;;;;;;;;;;;;;;;;;;;;
2021/11/25 00:32:06;;;;;;;18.27;8.30;;;;;;;3.51;91.71;92476.41;4878747;29;20041;-94
2021/11/25 00:35:49;;;;;;;;;;;;;;;;;;;;;
2021/11/25 00:39:15;;;;;;;17.92;8.63;;;;;;;3.51;92.92;92467.81;4879931;29;20140;-94
2021/11/25 00:42:32;;;;;;;;;;;;;;;;;;;;;
2021/11/25 00:55:22;;;;;;;14.55;8.55;;;;;;;3.44;92.45;92442.13;4838031;29;20511;-94
2021/11/25 00:58:27;;;;;;;;;;;;;;;;;;;;;
2021/11/25 01:04:49;;;;;;;13.60;7.10;;;;;;;3.41;92.21;92434.88;4843830;29;20064;-94
2021/11/25 01:07:54;;;;;;;15.52;8.13;;;;;;;3.32;92.25;92416.41;4832433;29;20045;-95
2021/11/25 01:10:44;;;;;;;;;;;;;;;;;;;;;
2021/11/25 01:13:46;;;;;;;22.52;9.07;;;;;;;3.35;93.37;92430.66;4878170;29;20044;-94
2021/11/25 01:17:17;;;;;;;;;;;;;;;;;;;;;
2021/11/25 01:20:20;;;;;;;14.57;8.07;;;;;;;3.28;92.63;92430.06;4866419;29;20084;-94
2021/11/25 01:23:19;;;;;;;;;;;;;;;;;;;;;
2021/11/25 01:26:10;;;;;;;14.75;8.38;;;;;;;3.08;92.14;92395.19;4860284;29;20034;-95
2021/11/25 01:29:16;;;;;;;17.77;8.43;;;;;;;3.17;91.98;92408.47;4875778;29;20045;-94
2021/11/25 01:31:59;;;;;;;15.25;7.88;;;;;;;3.10;91.85;92406.06;4868146;29;20052;-93
2021/11/25 01:35:24;;;;;;;;;;;;;;;;;;;;;
2021/11/25 01:38:10;;;;;;;17.95;9.35;;;;;;;3.08;93.45;92402.16;4848160;29;20051;-94
2021/11/25 01:41:38;;;;;;;19.90;10.13;;;;;;;3.09;93.81;92401.94;4850041;29;20136;-94
2021/11/25 01:45:09;;;;;;;;;;;;;;;;;;;;;
2021/11/25 01:48:06;;;;;;;29.02;11.15;;;;;;;3.16;94.72;92409.50;4874014;29;20048;-94
2021/11/25 01:51:26;;;;;;;;;;;;;;;;;;;;;
2021/11/25 01:54:34;;;;;;;23.42;11.13;;;;;;;3.08;93.93;92399.56;4863043;29;20041;-94
2021/11/25 01:57:34;;;;;;;24.80;11.30;;;;;;;3.16;94.18;92399.16;4847606;29;20048;-93
2021/11/25 02:01:50;;;;;;;21.58;9.98;;;;;;;3.14;94.05;92393.44;4837656;29;20064;-94
2021/11/25 02:04:23;;;;;;;26.40;10.05;;;;;;;3.25;94.22;92409.84;4844969;29;20050;-93
2021/11/25 02:13:36;;;;;;;;;;;;;;;;;;;;;
2021/11/25 02:16:40;;;;;;;;;;;;;;;;;;;;;
2021/11/25 02:26:51;;;;;;;15.93;7.35;;;;;;;3.29;91.88;92374.72;4875051;29;20056;-94
2021/11/25 02:30:02;;;;;;;23.38;9.85;;;;;;;3.49;93.36;92374.91;4850187;29;20064;-94
2021/11/25 02:33:09;;;;;;;28.10;12.38;;;;;;;3.40;95.08;92360.84;4863511;29;20067;-94
2021/11/25 02:36:09;;;;;;;30.00;13.25;;;;;;;3.32;96.49;92358.69;4860515;29;20504;-95
2021/11/25 02:39:41;;;;;;;;;;;;;;;;;;;;;
2021/11/25 02:42:32;;;;;;;26.75;13.77;;;;;;;3.19;97.13;92346.16;4847023;29;20041;-93
2021/11/25 02:45:40;;;;;;;20.60;10.63;;;;;;;3.18;97.49;92344.59;4861406;29;20038;-94
2021/11/25 02:49:16;;;;;;;;;;;;;;;;;;;;;
2021/11/25 02:52:25;;;;;;;26.98;13.85;;;;;;;3.15;98.24;92352.84;4863496;29;20103;-95
2021/11/25 02:55:28;;;;;;;;;;;;;;;;;;;;;
2021/11/25 02:58:18;;;;;;;32.97;14.23;;;;;;;3.12;98.31;92343.75;4881592;29;20044;-94
2021/11/25 03:01:47;;;;;;;32.95;14.75;;;;;;;3.04;98.46;92337.22;4854595;29;20237;-94
2021/11/25 03:05:14;;;;;;;25.33;12.95;;;;;;;3.09;98.26;92332.09;4863405;29;20483;-94
2021/11/25 03:08:21;;;;;;;;;;;;;;;;;;;;;
2021/11/25 03:11:24;;;;;;;27.00;13.15;;;;;;;3.26;96.84;92328.63;4865095;29;20033;-93
2021/11/25 03:14:14;;;;;;;28.80;14.30;;;;;;;3.19;97.17;92330.63;4850546;29;20060;-96
2021/11/25 03:20:31;;;;;;;30.77;14.45;;;;;;;3.17;97.80;92330.09;4855921;29;20517;-96
2021/11/25 03:23:43;;;;;;;29.25;13.63;;;;;;;3.16;97.82;92331.13;4848130;29;20475;-94
2021/11/25 03:26:56;;;;;;;;;;;;;;;;;;;;;
2021/11/25 03:30:03;;;;;;;;;;;;;;;;;;;;;
2021/11/25 03:32:57;;;;;;;29.95;13.00;;;;;;;3.17;96.96;92319.75;4850468;29;20033;-96
2021/11/25 03:36:17;;;;;;;;;;;;;;;;;;;;;
2021/11/25 03:38:58;;;;;;;30.88;14.13;;;;;;;3.17;96.42;92304.22;4866662;29;20038;-94
2021/11/25 03:41:47;;;;;;;;;;;;;;;;;;;;;
2021/11/25 03:45:14;;;;;;;214.45;13.40;;;;;;;3.24;98.51;92291.88;4867315;29;20060;-95
2021/11/25 03:48:08;;;;;;;;;;;;;;;;;;;;;
2021/11/25 03:50:48;;;;;;;34.00;15.93;;;;;;;3.17;99.76;92292.06;4846986;29;20106;-93
2021/11/25 03:57:27;;;;;;;35.72;15.20;;;;;;;3.10;100.00;92300.03;4874716;29;20069;-95
2021/11/25 04:01:09;;;;;;;;;;;;;;;;;;;;;
2021/11/25 04:04:18;;;;;;;39.85;17.58;;;;;;;3.10;100.00;92302.59;4848576;29;20038;-93
2021/11/25 04:07:53;;;;;;;41.85;19.02;;;;;;;3.21;100.00;92311.25;4854205;29;20045;-93
2021/11/25 04:14:01;;;;;;;;;;;;;;;;;;;;;
2021/11/25 04:17:21;;;;;;;;;;;;;;;;;;;;;
2021/11/25 04:20:33;;;;;;;;;;;;;;;;;;;;;
2021/11/25 04:23:29;;;;;;;;;;;;;;;;;;;;;
2021/11/25 04:26:23;;;;;;;;;;;;;;;;;;;;;
2021/11/25 04:30:09;;;;;;;36.70;16.08;;;;;;;3.33;99.29;92285.22;4848767;29;20129;-95
2021/11/25 04:39:54;;;;;;;63.45;17.13;;;;;;;3.40;99.58;92257.34;4867562;29;20046;-94
2021/11/25 04:46:12;;;;;;;;;;;;;;;;;;;;;
2021/11/25 04:49:34;;;;;;;56.30;19.48;;;;;;;3.34;100.00;92248.75;4862752;29;20077;-95
2021/11/25 04:52:50;;;;;;;45.63;17.55;;;;;;;3.40;100.00;92257.34;4846249;29;20045;-94
2021/11/25 04:56:19;;;;;;;78.45;17.52;;;;;;;3.36;100.00;92256.28;4860589;29;20047;-95
2021/11/25 04:59:07;;;;;;;158.63;17.10;;;;;;;3.39;100.00;92248.00;4860035;29;20045;-94
2021/11/25 05:05:22;;;;;;;;;;;;;;;;;;;;;
2021/11/25 05:11:19;;;;;;;;;;;;;;;;;;;;;
2021/11/25 05:14:45;;;;;;;48.70;19.75;;;;;;;3.28;100.00;92248.97;4840843;29;20053;-95
2021/11/25 05:17:51;;;;;;;47.10;18.48;;;;;;;3.42;100.00;92255.28;4867601;29;20086;-94
2021/11/25 05:20:58;;;;;;;42.83;18.15;;;;;;;3.25;100.00;92242.47;4851159;29;20460;-94
2021/11/25 05:24:03;;;;;;;;;;;;;;;;;;;;;
2021/11/25 05:27:33;;;;;;;;;;;;;;;;;;;;;
2021/11/25 05:30:30;;;;;;;50.83;20.25;;;;;;;3.32;100.00;92229.34;4856568;29;20041;-95
2021/11/25 05:33:34;;;;;;;46.97;19.90;;;;;;;3.26;100.00;92218.16;4873227;29;20074;-93
2021/11/25 05:37:01;;;;;;;49.95;19.95;;;;;;;3.32;100.00;92231.91;4863333;29;20048;-93
2021/11/25 05:40:11;;;;;;;50.60;19.92;;;;;;;3.33;100.00;92225.72;4857219;29;20045;-94
2021/11/25 05:43:35;;;;;;;48.05;19.20;;;;;;;3.22;100.00;92214.53;4861418;29;20053;-92
2021/11/25 06:01:51;;;;;;;355.27;14.20;;;;;;;3.22;100.00;92229.25;4874473;29;20082;-92
2021/11/25 06:04:31;;;;;;;141.82;17.00;;;;;;;3.08;100.00;92208.97;4856021;29;20042;-92
2021/11/25 06:21:56;;;;;;;;;;;;;;;;;;;;;
2021/11/25 06:25:20;;;;;;;54.22;20.40;;;;;;;3.23;100.00;92185.03;4827244;29;20085;-90
2021/11/25 06:28:05;;;;;;;;;;;;;;;;;;;;;
2021/11/25 06:31:59;;;;;;;564.42;18.70;;;;;;;3.30;100.00;92180.41;4844328;29;20045;-90
2021/11/25 06:35:36;;;;;;;489.52;21.80;;;;;;;3.42;100.00;92177.63;4829350;29;20054;-92
2021/11/25 06:42:35;;;;;;;407.98;18.70;;;;;;;3.24;100.00;92159.94;4862855;29;20068;-92
2021/11/25 06:57:53;;;;;;;215.40;22.20;;;;;;;2.91;100.00;92156.59;4882928;29;20438;-95
2021/11/25 07:00:44;;;;;;;148.57;22.30;;;;;;;2.90;100.00;92157.63;4867194;29;20068;-92
2021/11/25 07:03:46;;;;;;;84.90;18.83;;;;;;;2.86;100.00;92159.13;4886643;29;20046;-94
2021/11/25 07:07:10;;;;;;;;;;;;;;;;;;;;;
2021/11/25 07:09:46;;;;;;;328.08;18.63;;;;;;;3.16;100.00;92168.19;4852849;29;20068;-94
2021/11/25 07:16:12;;;;;;;89.55;15.98;;;;;;;2.92;100.00;92158.16;4867222;29;20045;-94
2021/11/25 07:19:23;;;;;;;;;;;;;;;;;;;;;
2021/11/25 07:22:40;;;;;;;;;;;;;;;;;;;;;
2021/11/25 07:32:02;;;;;;;;;;;;;;;;;;;;;
2021/11/25 07:35:00;;;;;;;;;;;;;;;;;;;;;
2021/11/25 07:37:57;;;;;;;224.95;20.27;;;;;;;2.88;100.00;92172.59;4868947;29;20140;-93
2021/11/25 07:41:11;;;;;;;101.38;19.25;;;;;;;2.91;100.00;92177.28;4874854;29;20082;-94
2021/11/25 07:43:40;;;;;;;113.53;21.63;;;;;;;2.97;100.00;92173.69;4849150;29;20065;-93
2021/11/25 07:46:39;;;;;;;124.20;21.10;;;;;;;2.95;100.00;92168.03;4877891;29;20041;-93
2021/11/25 07:49:24;;;;;;;;;;;;;;;;;;;;;
2021/11/25 07:52:15;;;;;;;261.95;25.38;;;;;;;2.91;100.00;92185.06;4848974;29;20041;-94
2021/11/25 07:56:05;;;;;;;310.10;26.00;;;;;;;3.00;100.00;92186.16;4869859;29;20049;-92
2021/11/25 07:58:28;;;;;;;435.67;25.02;;;;;;;3.07;100.00;92188.53;4862875;29;20040;-93
2021/11/25 08:01:29;;;;;;;;;;;;;;;;;;;;;
2021/11/25 08:04:34;;;;;;;603.35;31.05;;;;;;;2.90;100.00;92197.19;4861881;29;20396;-95
2021/11/25 08:07:37;;;;;;;;;;;;;;;;;;;;;
2021/11/25 08:10:44;;;;;;;;;;;;;;;;;;;;;
2021/11/25 08:13:25;;;;;;;;;;;;;;;;;;;;;
2021/11/25 08:16:38;;;;;;;;;;;;;;;;;;;;;
2021/11/25 08:23:33;;;;;;;;;;;;;;;;;;;;;
2021/11/25 08:26:14;;;;;;;;;;;;;;;;;;;;;
2021/11/25 08:29:18;;;;;;;19.70;12.65;;;;;;;2.29;99.41;92212.09;4857863;29;20475;-92
2021/11/25 08:32:11;;;;;;;51.72;23.67;;;;;;;2.27;98.29;92221.88;4864849;29;20041;-93
2021/11/25 08:35:05;;;;;;;18.23;7.82;;;;;;;1.98;95.66;92198.03;4851195;29;20061;-94
2021/11/25 08:37:42;;;;;;;49.55;22.48;;;;;;;2.08;95.40;92205.94;4864908;29;20044;-93
2021/11/25 08:40:52;;;;;;;61.92;25.40;;;;;;;2.11;95.98;92223.50;4835619;29;20041;-92
2021/11/25 08:43:42;;;;;;;61.80;26.13;;;;;;;2.13;96.73;92218.88;4849467;29;20085;-93
2021/11/25 08:46:52;;;;;;;70.45;26.75;;;;;;;2.24;97.27;92212.03;4828983;29;20102;-94
2021/11/25 08:49:38;;;;;;;70.60;27.60;;;;;;;2.44;97.52;92217.44;4834252;29;20041;-93
2021/11/25 08:52:15;;;;;;;79.55;25.98;;;;;;;2.62;97.60;92218.13;4832044;29;20049;-94
2021/11/25 08:55:15;;;;;;;70.75;28.88;;;;;;;2.64;97.75;92209.09;4853469;29;20056;-93
2021/11/25 08:58:00;;;;;;;74.25;29.15;;;;;;;2.73;97.81;92211.25;4836708;29;20375;-95
2021/11/25 09:00:37;;;;;;;87.60;30.52;;;;;;;2.92;98.06;92223.56;4819990;29;20058;-95
2021/11/25 09:03:49;;;;;;;75.35;28.45;;;;;;;2.98;98.61;92213.28;4813242;29;20030;-93
2021/11/25 09:06:35;;;;;;;;;;;;;;;3.13;98.43;92211.59;4827255;29;20053;-93
2021/11/25 09:09:57;;;;;;;;;;;;;;;;;;;;;
2021/11/25 09:16:04;;;;;;;;;;;;;;;;;;;;;
2021/11/25 09:24:55;;;;;;;72.68;26.30;;;;;;;3.49;95.49;92201.50;4857881;29;20451;-94
2021/11/25 09:28:11;;;;;;;73.50;29.35;;;;;;;3.60;95.25;92206.75;4851079;29;20046;-94
2021/11/25 09:31:24;;;;;;;;;;;;;;;;;;;;;
2021/11/25 09:34:10;;;;;;;67.07;28.23;;;;;;;3.72;95.55;92195.19;4861415;29;20086;-94
2021/11/25 09:40:12;;;;;;;63.60;24.50;;;;;;;3.74;94.23;92184.56;4846047;29;20109;-94
2021/11/25 09:42:43;;;;;;;58.22;22.98;;;;;;;3.77;93.36;92184.06;4833153;29;20043;-92
2021/11/25 09:48:36;;;;;;;54.00;24.33;;;;;;;3.66;93.89;92172.09;4844765;29;20045;-94
2021/11/25 09:51:29;;;;;;;;;;;;;;;;;;;;;
2021/11/25 09:54:24;;;;;;;;;;;;;;;;;;;;;
2021/11/25 09:57:14;;;;;;;56.53;23.40;;;;;;;3.73;93.79;92170.06;4873571;29;20505;-93
2021/11/25 10:00:31;;;;;;;60.03;24.58;;;;;;;3.67;93.64;92173.63;4870233;29;20105;-94
2021/11/25 10:10:40;;;;;;;61.28;23.70;;;;;;;3.76;93.16;92143.69;4849234;29;20136;-93
2021/11/25 10:13:34;;;;;;;;;;;;;;;;;;;;;
2021/11/25 10:16:29;;;;;;;56.35;22.73;;;;;;;4.01;90.83;92137.03;4853584;29;20061;-91
2021/11/25 10:23:53;;;;;;;;;;;;;;;;;;;;;
2021/11/25 10:26:40;;;;;;;51.17;23.92;;;;;;;3.60;92.78;92131.69;4863205;29;20140;-92
2021/11/25 10:29:31;;;;;;;65.65;23.40;;;;;;;3.45;93.77;92119.47;4833635;29;20045;-93
2021/11/25 10:32:35;;;;;;;;;;;;;;;;;;;;;
2021/11/25 10:35:31;;;;;;;51.95;21.95;;;;;;;3.51;91.41;92119.22;4863826;29;20049;-92
2021/11/25 10:42:35;;;;;;;46.92;22.17;;;;;;;3.63;92.01;92113.84;4864520;29;20077;-92
2021/11/25 10:45:27;;;;;;;59.08;23.90;;;;;;;3.66;92.05;92097.03;4867547;29;20390;-93
2021/11/25 10:48:35;;;;;;;;;;;;;;;;;;;;;
2021/11/25 10:51:40;;;;;;;54.40;23.50;;;;;;;3.98;91.06;92096.88;4878410;29;20044;-93
2021/11/25 10:58:34;;;;;;;54.63;21.27;;;;;;;4.13;90.22;92083.97;4858101;29;20414;-92
2021/11/25 11:01:56;;;;;;;51.17;22.33;;;;;;;4.24;90.74;92071.81;4860850;29;20044;-93
2021/11/25 11:04:56;;;;;;;52.58;20.88;;;;;;;4.50;90.12;92069.25;4841036;29;20160;-92
2021/11/25 11:11:37;;;;;;;56.95;23.02;;;;;;;4.60;90.74;92064.06;4836220;29;20487;-93
2021/11/25 11:14:30;;;;;;;54.58;22.38;;;;;;;4.55;90.20;92038.94;4847004;29;20501;-91
2021/11/25 11:21:02;;;;;;;51.55;21.20;;;;;;;4.72;87.50;92043.06;4797543;29;20031;-94
2021/11/25 11:27:32;;;;;;;47.13;19.30;;;;;;;4.57;88.48;92036.06;4848537;29;20794;-92
2021/11/25 11:30:35;;;;;;;56.97;21.40;;;;;;;4.47;88.55;92025.72;4849555;29;20431;-93
2021/11/25 11:33:28;;;;;;;47.45;18.17;;;;;;;4.41;87.15;92021.56;4847591;29;20480;-92
2021/11/25 11:36:43;;;;;;;48.42;19.52;;;;;;;4.27;88.15;92013.53;4831863;29;20136;-93
2021/11/25 11:39:26;;;;;;;60.70;22.30;;;;;;;4.28;89.41;92002.09;4861541;29;20026;-91
2021/11/25 11:42:14;;;;;;;;;;;;;;;;;;;;;
2021/11/25 11:45:20;;;;;;;;;;;;;;;;;;;;;
2021/11/25 11:48:03;;;;;;;;;;;;;;;4.56;89.13;92016.38;4863985;29;20056;-92
2021/11/25 11:50:48;;;;;;;48.88;19.88;;;;;;;4.51;89.02;91996.41;4846605;29;20382;-94
2021/11/25 11:53:40;;;;;;;48.45;22.52;;;;;;;4.60;89.43;92007.03;4848702;29;20090;-93
2021/11/25 11:56:29;;;;;;;;;;;;;;;4.66;89.17;92012.97;4861412;29;20139;-92
2021/11/25 11:59:15;;;;;;;47.33;17.67;;;;;;;4.46;89.42;91988.66;4859762;29;19920;-92
2021/11/25 12:02:06;;;;;;;47.70;18.48;;;;;;;4.50;90.65;91994.06;4861620;29;20049;-93
2021/11/25 12:05:51;;;;;;;48.75;19.90;;;;;;;4.47;90.56;91986.81;4872167;29;20116;-92
2021/11/25 12:08:42;;;;;;;49.70;20.17;;;;;;;4.52;91.25;91994.59;4864294;29;20132;-92
2021/11/25 12:11:58;;;;;;;;;;;;;;;;;;;;;
2021/11/25 12:15:03;;;;;;;55.85;23.88;;;;;;;4.50;93.10;91986.28;4866760;29;20055;-92
2021/11/25 12:20:47;;;;;;;;;;;;;;;;;;;;;
2021/11/25 12:23:42;;;;;;;42.75;18.00;;;;;;;4.66;91.28;91956.75;4867667;29;20136;-93
2021/11/25 12:29:48;;;;;;;;;;;;;;;;;;;;;
2021/11/25 12:32:40;;;;;;;;;;;;;;;;;;;;;
2021/11/25 12:35:30;;;;;;;28.73;11.48;;;;;;;4.66;88.84;91946.38;4861981;29;20056;-92
2021/11/25 12:38:20;;;;;;;21.67;10.32;;;;;;;4.50;86.26;91926.69;4861196;29;20056;-92
2021/11/25 12:41:13;;;;;;;21.95;9.63;;;;;;;4.51;86.18;91930.84;4843927;29;20045;-92
2021/11/25 12:47:16;;;;;;;25.38;10.95;;;;;;;4.43;88.32;91910.63;4847715;29;20050;-92
2021/11/25 12:50:25;;;;;;;16.45;7.22;;;;;;;4.37;85.07;91902.88;4848217;29;20128;-92
2021/11/25 12:53:37;;;;;;;26.95;11.63;;;;;;;4.24;89.62;91897.44;4863814;29;20052;-92
2021/11/25 12:57:05;;;;;;;41.90;17.13;;;;;;;4.26;93.43;91890.97;4842797;29;20052;-92
2021/11/25 13:03:18;;;;;;;;;;;;;;;;;;;;;
2021/11/25 13:06:21;;;;;;;;;;;;;;;;;;;;;
2021/11/25 13:09:35;;;;;;;35.40;16.42;;;;;;;4.13;95.00;91865.59;4879171;29;20490;-92
2021/11/25 13:12:36;;;;;;;34.78;13.85;;;;;;;4.13;94.02;91868.97;4848842;29;20120;-92
2021/11/25 13:15:19;;;;;;;36.70;14.95;;;;;;;4.11;94.09;91859.91;4844116;29;20097;-92
2021/11/25 13:18:19;;;;;;;32.83;15.73;;;;;;;3.92;95.88;91855.25;4861480;29;20033;-91
2021/11/25 13:21:05;;;;;;;;;;;;;;;;;;;;;
2021/11/25 13:23:41;;;;;;;38.83;16.92;;;;;;;4.00;95.49;91860.94;4844982;29;20052;-93
2021/11/25 13:26:59;;;;;;;40.22;17.90;;;;;;;3.82;94.67;91844.13;4849617;29;20054;-92
2021/11/25 13:33:05;;;;;;;23.10;9.82;;;;;;;3.72;93.72;91847.50;4862788;29;20046;-92
2021/11/25 13:36:04;;;;;;;22.35;9.85;;;;;;;3.55;92.56;91845.16;4818233;29;20057;-93
2021/11/25 13:39:17;;;;;;;25.63;10.05;;;;;;;3.46;94.08;91857.81;4849036;29;20449;-93
2021/11/25 13:42:08;;;;;;;30.33;11.52;;;;;;;3.41;93.66;91850.06;4863741;29;20033;-93
2021/11/25 13:45:33;;;;;;;;;;;;;;;;;;;;;
2021/11/25 13:51:21;;;;;;;22.08;9.48;;;;;;;3.46;93.56;91851.88;4893362;29;20132;-91
2021/11/25 13:54:29;;;;;;;26.20;10.60;;;;;;;3.41;93.54;91844.88;4868867;29;20041;-93
2021/11/25 13:57:17;;;;;;;27.23;10.10;;;;;;;3.40;93.92;91827.81;4852654;29;20053;-93
2021/11/25 14:00:03;;;;;;;18.58;8.18;;;;;;;3.39;93.31;91826.25;4882845;29;20150;-94
2021/11/25 14:02:48;;;;;;;20.33;8.07;;;;;;;3.46;92.74;91831.94;4884041;29;20113;-92
2021/11/25 14:08:52;;;;;;;19.73;8.20;;;;;;;3.46;93.14;91826.78;4850280;29;20053;-94
2021/11/25 14:11:43;;;;;;;17.33;8.60;;;;;;;3.48;93.61;91827.28;4877761;29;20056;-94
2021/11/25 14:15:14;;;;;;;17.10;7.88;;;;;;;3.46;93.17;91815.66;4840994;29;20052;-93
2021/11/25 14:18:20;;;;;;;;;;;;;;;3.55;93.09;91825.22;4849605;29;20555;-94
2021/11/25 14:21:00;;;;;;;15.73;6.43;;;;;;;3.48;94.06;91811.78;4860637;29;19920;-93
2021/11/25 14:23:50;;;;;;;16.40;7.25;;;;;;;3.50;93.73;91820.06;4867708;29;20045;-93
2021/11/25 14:33:00;;;;;;;14.27;6.90;;;;;;;3.49;94.54;91815.94;4846925;29;20113;-93
2021/11/25 14:36:10;;;;;;;;;;;;;;;;;;;;;
2021/11/25 14:39:19;;;;;;;;;;;;;;;;;;;;;
2021/11/25 14:42:34;;;;;;;13.90;6.20;;;;;;;3.61;94.51;91807.13;4877154;29;20514;-93
2021/11/25 14:45:39;;;;;;;20.00;6.60;;;;;;;3.55;94.84;91804.50;4865070;29;20053;-93
2021/11/25 14:48:36;;;;;;;17.83;7.07;;;;;;;3.65;95.18;91816.69;4863551;29;20034;-93
2021/11/25 14:51:50;;;;;;;15.15;6.65;;;;;;;3.65;94.98;91813.34;4854706;29;20517;-91
2021/11/25 14:57:55;;;;;;;12.50;5.90;;;;;;;3.65;94.94;91813.34;4894746;29;20573;-77
2021/11/25 15:00:21;;;;;;;20.02;7.18;;;;;;;3.65;95.27;91813.34;4887455;29;20097;-78
2021/11/25 15:02:51;;;;;;;15.48;7.32;;;;;;;3.62;95.86;91809.44;4879863;29;20040;-78
2021/11/25 15:05:19;;;;;;;18.02;6.55;;;;;;;3.61;95.56;91809.72;4882640;29;20037;-79
2021/11/25 15:07:57;;;;;;;17.33;7.82;;;;;;;3.58;95.60;91807.63;4884389;29;20088;-81
2021/11/25 15:10:24;;;;;;;18.83;8.00;;;;;;;3.54;96.11;91805.56;4870158;29;20480;-81
2021/11/25 15:12:51;;;;;;;20.95;8.30;;;;;;;3.60;96.65;91808.16;4874460;29;20044;-82
2021/11/25 15:15:17;;;;;;;20.05;9.13;;;;;;;3.55;97.40;91807.09;4870106;29;20041;-80
2021/11/25 15:17:43;;;;;;;23.45;8.85;;;;;;;3.53;96.69;91809.19;4901694;29;20089;-80
2021/11/25 15:20:15;;;;;;;21.80;8.57;;;;;;;3.50;97.14;91812.28;4870895;29;20504;-80
2021/11/25 15:22:42;;;;;;;19.33;8.40;;;;;;;3.47;96.83;91807.63;4853694;29;20045;-80
2021/11/25 15:25:12;;;;;;;15.23;7.82;;;;;;;3.47;96.63;91812.03;4885112;29;20385;-79
2021/11/25 15:27:38;;;;;;;18.52;8.48;;;;;;;3.39;96.87;91804.78;4885279;29;20598;-79
2021/11/25 15:30:06;;;;;;;18.85;7.78;;;;;;;3.38;96.65;91801.44;4885259;29;20025;-80
2021/11/25 15:32:32;;;;;;;18.65;8.05;;;;;;;3.37;96.55;91791.34;4867573;29;20079;-81
2021/11/25 15:35:00;;;;;;;17.30;7.80;;;;;;;3.33;96.71;91798.81;4886577;29;20038;-79
2021/11/25 15:37:27;;;;;;;18.15;7.38;;;;;;;3.30;96.48;91787.19;4867830;29;20424;-80
2021/11/25 15:39:54;;;;;;;15.68;7.38;;;;;;;3.29;96.50;91790.03;4868545;29;20046;-79
2021/11/25 15:42:20;;;;;;;17.52;8.20;;;;;;;3.24;96.57;91790.03;4866812;29;20068;-79
2021/11/25 15:44:46;;;;;;;20.92;8.77;;;;;;;3.23;96.51;91794.44;4881474;29;20096;-80
2021/11/25 15:47:14;;;;;;;21.42;9.38;;;;;;;3.26;97.01;91793.91;4852225;29;20041;-78
2021/11/25 15:49:40;;;;;;;18.13;7.45;;;;;;;3.28;96.91;91793.66;4882900;29;20517;-81
2021/11/25 15:52:07;;;;;;;23.50;8.65;;;;;;;3.31;96.79;91793.13;4886079;29;20047;-78
2021/11/25 15:54:33;;;;;;;16.70;7.15;;;;;;;3.32;96.34;91786.94;4866114;29;20036;-80
2021/11/25 15:56:59;;;;;;;15.80;6.57;;;;;;;3.31;96.32;91783.56;4886117;29;20056;-82
2021/11/25 15:59:43;;;;;;;17.38;7.20;;;;;;;3.32;95.63;91786.94;4882516;29;20037;-78
2021/11/25 16:02:11;;;;;;;19.10;8.00;;;;;;;3.33;96.48;91791.06;4866712;29;20097;-79
2021/11/25 16:04:37;;;;;;;20.35;8.50;;;;;;;3.32;96.50;91779.16;4883567;29;20033;-78
2021/11/25 16:07:03;;;;;;;19.90;8.40;;;;;;;3.33;97.69;91778.91;4882284;29;20044;-78
2021/11/25 16:09:29;;;;;;;22.10;9.95;;;;;;;3.36;98.13;91787.97;4883409;29;20058;-78
2021/11/25 16:12:16;;;;;;;23.48;10.55;;;;;;;3.33;98.36;91776.34;4866528;29;20433;-80
2021/11/25 16:14:43;;;;;;;24.33;10.73;;;;;;;3.34;98.72;91780.47;4883052;29;20108;-78
2021/11/25 16:17:14;;;;;;;21.55;9.75;;;;;;;3.35;98.70;91781.22;4880565;29;20048;-78
2021/11/25 16:19:41;;;;;;;19.92;11.30;;;;;;;3.30;98.57;91782.00;4884071;29;20048;-78
2021/11/25 16:22:08;;;;;;;28.63;11.48;;;;;;;3.32;98.34;91784.34;4880726;29;20460;-77
2021/11/25 16:24:34;;;;;;;22.65;10.57;;;;;;;3.31;98.40;91777.59;4863992;29;20033;-77
2021/11/25 16:27:00;;;;;;;19.20;9.18;;;;;;;3.30;98.06;91779.41;4862458;29;20048;-77
2021/11/25 16:29:26;;;;;;;16.65;7.00;;;;;;;3.37;97.22;91786.16;4881989;29;20109;-78
2021/11/25 16:31:52;;;;;;;14.13;6.75;;;;;;;3.36;95.96;91782.81;4881990;29;20083;-78
2021/11/25 16:34:24;;;;;;;14.80;6.63;;;;;;;3.31;96.11;91787.94;4881128;29;20033;-77
2021/11/25 16:36:51;;;;;;;16.13;7.03;;;;;;;3.26;96.60;91782.78;4865118;29;20045;-78
2021/11/25 16:39:18;;;;;;;15.98;6.95;;;;;;;3.29;97.17;91780.47;4882429;29;20432;-80
2021/11/25 16:41:44;;;;;;;14.57;7.13;;;;;;;3.33;97.15;91780.72;4861384;29;20045;-78
2021/11/25 16:44:09;;;;;;;20.08;8.07;;;;;;;3.31;97.27;91781.00;4878720;29;20104;-78
2021/11/25 16:49:14;;;;;;;20.15;8.98;;;;;;;3.29;97.70;91769.34;4880203;29;20049;-77
2021/11/25 16:51:40;;;;;;;24.92;10.38;;;;;;;3.29;98.14;91770.13;4881149;29;20567;-77
2021/11/25 16:54:06;;;;;;;24.05;8.88;;;;;;;3.29;98.28;91770.13;4880809;29;20466;-77
2021/11/25 16:56:35;;;;;;;19.90;8.13;;;;;;;3.36;97.89;91766.50;4880124;29;20053;-77
2021/11/25 16:59:02;;;;;;;15.70;8.00;;;;;;;3.34;98.00;91766.75;4864093;29;20053;-78
2021/11/25 17:01:28;;;;;;;17.90;8.65;;;;;;;3.34;98.17;91771.94;4886233;29;20041;-77
2021/11/25 17:03:54;;;;;;;24.80;9.48;;;;;;;3.35;98.16;91768.28;4886771;29;20040;-77
2021/11/25 17:06:19;;;;;;;25.85;11.75;;;;;;;3.35;98.65;91768.28;4868295;29;20033;-79
2021/11/25 17:08:45;;;;;;;31.67;12.13;;;;;;;3.34;98.61;91769.34;4876220;29;20036;-77
2021/11/25 17:11:11;;;;;;;29.33;11.85;;;;;;;3.32;98.37;91766.25;4885075;29;20060;-78
2021/11/25 17:13:37;;;;;;;27.77;12.63;;;;;;;3.30;98.41;91765.72;4869327;29;20040;-79
2021/11/25 17:16:09;;;;;;;28.38;12.38;;;;;;;3.30;98.90;91770.88;4868503;29;20047;-76
2021/11/25 17:18:35;;;;;;;28.75;11.23;;;;;;;3.38;99.06;91767.81;4875106;29;20040;-78
2021/11/25 17:21:05;;;;;;;24.67;11.07;;;;;;;3.36;98.83;91774.28;4887605;29;20040;-78
2021/11/25 17:23:33;;;;;;;23.42;11.13;;;;;;;3.29;98.86;91774.53;4870716;29;20051;-77
2021/11/25 17:26:00;;;;;;;26.50;11.95;;;;;;;3.29;98.90;91770.13;4886397;29;20029;-77
2021/11/25 17:28:26;;;;;;;30.00;14.25;;;;;;;3.28;98.71;91768.56;4883701;29;20108;-79
2021/11/25 17:30:52;;;;;;;23.10;11.35;;;;;;;3.35;98.75;91770.88;4866996;29;20033;-79
2021/11/25 17:33:19;;;;;;;23.75;10.98;;;;;;;3.31;98.84;91764.66;4870061;29;20037;-82
2021/11/25 17:35:46;;;;;;;29.92;11.13;;;;;;;3.30;99.00;91765.72;4861261;29;20037;-82
2021/11/25 17:38:12;;;;;;;22.10;11.15;;;;;;;3.27;99.33;91764.44;4867897;29;20033;-82
2021/11/25 17:40:39;;;;;;;22.73;11.05;;;;;;;3.28;99.04;91760.78;4883920;29;20439;-80
2021/11/25 17:43:06;;;;;;;20.80;10.68;;;;;;;3.26;99.05;91759.50;4885233;29;20515;-80
2021/11/25 17:45:34;;;;;;;22.77;10.77;;;;;;;3.23;98.68;91765.19;4852406;29;20088;-81
2021/11/25 17:48:00;;;;;;;27.35;14.43;;;;;;;3.22;98.74;91766.22;4885127;29;20059;-82
2021/11/25 17:50:26;;;;;;;32.88;15.35;;;;;;;3.20;98.95;91758.75;4877197;29;20025;-80
2021/11/25 17:52:55;;;;;;;25.20;11.05;;;;;;;3.18;98.95;91762.63;4867445;29;20447;-82
2021/11/25 17:55:23;;;;;;;15.23;7.00;;;;;;;3.22;98.70;91761.06;4866463;29;20056;-81
2021/11/25 17:57:50;;;;;;;15.40;7.45;;;;;;;3.19;98.22;91759.00;4867974;29;20041;-80
2021/11/25 18:00:17;;;;;;;17.73;8.48;;;;;;;3.20;98.63;91765.69;4883410;29;20731;-81
2021/11/25 18:02:44;;;;;;;17.00;8.02;;;;;;;3.20;98.68;91763.13;4895198;29;20036;-81
2021/11/25 18:05:11;;;;;;;21.77;8.73;;;;;;;3.22;98.94;91768.81;4903331;29;20084;-80
2021/11/25 18:07:36;;;;;;;17.35;7.45;;;;;;;3.25;98.75;91768.31;4903185;29;20414;-81
2021/11/25 18:10:04;;;;;;;14.77;7.47;;;;;;;3.23;98.95;91765.19;4885734;29;20025;-79
2021/11/25 18:12:29;;;;;;;15.57;7.82;;;;;;;3.28;99.12;91763.38;4878993;29;20517;-81
2021/11/25 18:14:55;;;;;;;14.07;6.60;;;;;;;3.26;99.26;91764.69;4878114;29;20033;-79
2021/11/25 18:17:22;;;;;;;13.23;6.05;;;;;;;3.25;99.45;91763.91;4877968;29;20105;-83
2021/11/25 18:19:49;;;;;;;12.40;6.00;;;;;;;3.24;99.35;91762.38;4865262;29;20045;-79
2021/11/25 18:22:16;;;;;;;17.83;7.20;;;;;;;3.24;99.29;91758.97;4879059;29;20033;-81
2021/11/25 18:24:43;;;;;;;19.15;10.13;;;;;;;3.24;99.32;91757.19;4886593;29;20111;-82
2021/11/25 18:27:09;;;;;;;16.85;8.50;;;;;;;3.24;99.26;91759.78;4880186;29;20384;-80
2021/11/25 18:29:35;;;;;;;17.40;6.65;;;;;;;3.30;99.19;91756.13;4879942;29;20040;-81
2021/11/25 18:32:01;;;;;;;14.98;7.20;;;;;;;3.30;99.20;91755.38;4878973;29;20037;-79